createdAt,value
2019-02-18T00:00:08.152Z,19.40
2019-02-18T00:01:08.036Z,15.80
2019-02-18T00:02:10.463Z,17.90
2019-02-18T00:03:08.019Z,15.20
2019-02-18T00:04:08.079Z,17.70
2019-02-18T00:05:08.010Z,16.30
2019-02-18T00:07:14.467Z,15.00
2019-02-18T00:08:09.028Z,14.60
2019-02-18T00:09:07.943Z,15.20
2019-02-18T00:10:08.041Z,16.70
2019-02-18T00:11:07.919Z,16.50
2019-02-18T00:12:08.030Z,15.60
2019-02-18T00:13:07.897Z,14.70
2019-02-18T00:14:07.938Z,16.40
2019-02-18T00:15:07.903Z,18.30
2019-02-18T00:17:08.983Z,17.50
2019-02-18T00:18:07.971Z,16.10
2019-02-18T00:19:07.834Z,17.00
2019-02-18T00:20:07.905Z,15.60
2019-02-18T00:21:07.813Z,15.50
2019-02-18T00:23:08.918Z,14.50
2019-02-18T00:24:07.806Z,15.90
2019-02-18T00:25:07.804Z,15.90
2019-02-18T00:26:07.850Z,16.10
2019-02-18T00:27:07.755Z,16.20
2019-02-18T00:28:07.838Z,15.30
2019-02-18T00:29:07.796Z,16.50
2019-02-18T00:30:07.750Z,19.40
2019-02-18T00:31:07.734Z,18.00
2019-02-18T00:32:07.758Z,16.40
2019-02-18T00:33:07.685Z,14.10
2019-02-18T00:34:07.772Z,19.60
2019-02-18T00:35:07.689Z,16.10
2019-02-18T00:36:08.231Z,18.80
2019-02-18T00:37:07.638Z,15.90
2019-02-18T00:38:07.801Z,15.60
2019-02-18T00:39:07.630Z,15.10
2019-02-18T00:41:08.753Z,18.50
2019-02-18T00:42:08.062Z,18.00
2019-02-18T00:43:07.573Z,16.00
2019-02-18T00:45:08.684Z,16.00
2019-02-18T00:46:08.607Z,16.60
2019-02-18T00:47:07.558Z,15.60
2019-02-18T00:49:08.673Z,15.70
2019-02-18T00:51:08.659Z,17.50
2019-02-18T00:53:08.601Z,18.50
2019-02-18T00:55:08.585Z,16.00
2019-02-18T00:56:08.878Z,16.60
2019-02-18T00:57:07.439Z,17.60
2019-02-18T00:59:08.553Z,18.40
2019-02-18T01:00:09.488Z,15.80
2019-02-18T01:01:07.410Z,18.30
2019-02-18T01:02:08.939Z,18.20
2019-02-18T01:03:07.371Z,17.80
2019-02-18T01:05:08.504Z,17.70
2019-02-18T01:07:08.494Z,16.90
2019-02-18T01:08:09.360Z,16.40
2019-02-18T01:09:07.450Z,17.80
2019-02-18T01:11:54.597Z,16.60
2019-02-18T01:12:54.565Z,18.60
2019-02-18T01:13:54.554Z,15.60
2019-02-18T01:14:54.416Z,18.70
2019-02-18T01:15:54.459Z,19.10
2019-02-18T01:16:54.450Z,16.70
2019-02-18T01:17:54.471Z,17.50
2019-02-18T01:18:54.367Z,18.30
2019-02-18T01:19:54.471Z,15.70
2019-02-18T01:20:54.346Z,18.10
2019-02-18T01:21:54.391Z,18.40
2019-02-18T01:22:54.361Z,22.10
2019-02-18T01:24:55.458Z,14.90
2019-02-18T01:26:55.422Z,18.30
2019-02-18T01:27:54.362Z,18.10
2019-02-18T01:28:54.260Z,16.90
2019-02-18T01:29:54.342Z,16.70
2019-02-18T01:30:54.244Z,16.30
2019-02-18T01:31:54.362Z,17.80
2019-02-18T01:32:54.261Z,16.60
2019-02-18T01:33:54.266Z,18.30
2019-02-18T01:34:54.200Z,17.00
2019-02-18T01:35:54.305Z,17.60
2019-02-18T01:36:54.194Z,15.80
2019-02-18T01:37:54.229Z,19.00
2019-02-18T01:38:54.153Z,16.90
2019-02-18T01:40:55.261Z,16.70
2019-02-18T01:42:55.339Z,16.80
2019-02-18T01:43:54.311Z,16.70
2019-02-18T01:44:54.264Z,18.10
2019-02-18T01:47:41.082Z,16.60
2019-02-18T01:48:41.120Z,19.30
2019-02-18T01:49:40.926Z,18.70
2019-02-18T01:50:40.914Z,18.40
2019-02-18T01:51:40.910Z,18.00
2019-02-18T01:52:40.991Z,17.20
2019-02-18T01:53:40.913Z,16.50
2019-02-18T01:54:40.888Z,17.80
2019-02-18T01:55:40.866Z,17.00
2019-02-18T01:56:40.903Z,17.80
2019-02-18T01:57:40.841Z,16.90
2019-02-18T01:58:40.950Z,19.30
2019-02-18T01:59:40.819Z,20.70
2019-02-18T02:00:40.836Z,17.10
2019-02-18T02:01:40.788Z,17.90
2019-02-18T02:02:40.847Z,18.60
2019-02-18T02:03:40.802Z,17.90
2019-02-18T02:04:40.895Z,20.70
2019-02-18T02:05:40.745Z,18.10
2019-02-18T02:06:40.773Z,17.50
2019-02-18T02:07:40.727Z,15.90
2019-02-18T02:08:40.813Z,18.50
2019-02-18T02:09:40.726Z,17.00
2019-02-18T02:10:40.795Z,16.70
2019-02-18T02:11:40.682Z,16.90
2019-02-18T02:12:40.718Z,16.50
2019-02-18T02:13:40.663Z,20.20
2019-02-18T02:14:42.700Z,20.60
2019-02-18T02:15:40.640Z,18.20
2019-02-18T02:17:41.745Z,17.50
2019-02-18T02:18:40.667Z,18.90
2019-02-18T02:19:40.628Z,20.70
2019-02-18T02:20:40.668Z,18.20
2019-02-18T02:21:40.601Z,18.80
2019-02-18T02:22:42.633Z,19.80
2019-02-18T02:23:40.584Z,18.60
2019-02-18T02:24:40.619Z,18.30
2019-02-18T02:25:40.532Z,19.10
2019-02-18T02:26:40.621Z,18.30
2019-02-18T02:27:40.516Z,18.80
2019-02-18T02:28:40.628Z,18.70
2019-02-18T02:29:40.516Z,18.20
2019-02-18T02:30:40.554Z,18.80
2019-02-18T02:31:40.469Z,17.60
2019-02-18T02:33:41.577Z,20.00
2019-02-18T02:34:40.610Z,19.80
2019-02-18T02:35:40.452Z,18.70
2019-02-18T02:36:40.470Z,20.90
2019-02-18T02:37:40.410Z,18.30
2019-02-18T02:38:40.484Z,17.60
2019-02-18T02:39:40.414Z,16.90
2019-02-18T02:40:40.501Z,18.40
2019-02-18T02:41:40.367Z,19.20
2019-02-18T02:43:41.499Z,18.90
2019-02-18T02:44:40.453Z,19.80
2019-02-18T02:45:40.353Z,18.90
2019-02-18T02:46:40.327Z,19.30
2019-02-18T02:47:40.291Z,18.80
2019-02-18T02:48:40.351Z,19.00
2019-02-18T02:49:40.274Z,18.90
2019-02-18T02:50:40.390Z,18.00
2019-02-18T02:51:40.256Z,20.10
2019-02-18T02:52:40.277Z,18.50
2019-02-18T02:53:40.235Z,18.40
2019-02-18T02:54:40.295Z,19.00
2019-02-18T02:55:40.234Z,17.60
2019-02-18T02:56:40.328Z,18.40
2019-02-18T02:57:40.190Z,16.10
2019-02-18T02:58:40.208Z,20.60
2019-02-18T02:59:40.162Z,17.10
2019-02-18T03:00:40.220Z,20.40
2019-02-18T03:01:40.168Z,21.50
2019-02-18T03:02:40.243Z,19.00
2019-02-18T03:03:40.123Z,21.60
2019-02-18T03:04:40.153Z,20.60
2019-02-18T03:05:40.109Z,18.70
2019-02-18T03:06:40.194Z,18.20
2019-02-18T03:07:40.080Z,20.30
2019-02-18T03:08:40.172Z,20.30
2019-02-18T03:09:40.059Z,20.10
2019-02-18T03:10:40.083Z,23.00
2019-02-18T03:11:40.061Z,20.20
2019-02-18T03:12:40.113Z,20.90
2019-02-18T03:13:40.033Z,22.80
2019-02-18T03:14:40.111Z,20.50
2019-02-18T03:15:39.989Z,21.70
2019-02-18T03:16:40.058Z,22.70
2019-02-18T03:17:39.982Z,22.60
2019-02-18T03:18:40.039Z,20.70
2019-02-18T03:19:39.960Z,18.80
2019-02-18T03:20:40.070Z,19.50
2019-02-18T03:21:39.952Z,21.60
2019-02-18T03:22:39.966Z,21.40
2019-02-18T03:23:39.913Z,19.30
2019-02-18T03:24:39.981Z,19.50
2019-02-18T03:25:39.994Z,20.10
2019-02-18T03:26:40.028Z,19.70
2019-02-18T03:27:39.863Z,22.40
2019-02-18T03:28:39.903Z,20.40
2019-02-18T03:29:39.838Z,18.40
2019-02-18T03:30:39.923Z,20.40
2019-02-18T03:31:39.818Z,19.50
2019-02-18T03:32:39.862Z,20.20
2019-02-18T03:33:39.795Z,19.50
2019-02-18T03:34:39.847Z,20.10
2019-02-18T03:35:39.780Z,21.10
2019-02-18T03:36:39.856Z,19.60
2019-02-18T03:37:39.787Z,19.70
2019-02-18T03:38:39.794Z,20.30
2019-02-18T03:39:39.768Z,20.10
2019-02-18T03:40:39.780Z,20.70
2019-02-18T03:41:41.008Z,20.10
2019-02-18T03:42:39.799Z,19.80
2019-02-18T03:43:39.696Z,19.10
2019-02-18T03:44:39.711Z,23.20
2019-02-18T03:45:39.673Z,21.20
2019-02-18T03:46:39.734Z,21.40
2019-02-18T03:47:39.673Z,20.00
2019-02-18T03:49:40.762Z,19.80
2019-02-18T03:50:39.652Z,20.40
2019-02-18T03:51:39.602Z,21.50
2019-02-18T03:52:39.689Z,20.80
2019-02-18T03:53:39.597Z,21.80
2019-02-18T03:55:40.686Z,20.00
2019-02-18T03:56:39.590Z,20.90
2019-02-18T03:57:39.566Z,19.90
2019-02-18T03:58:39.632Z,20.80
2019-02-18T03:59:39.515Z,18.00
2019-02-18T04:00:39.618Z,20.40
2019-02-18T04:01:39.515Z,22.60
2019-02-18T04:02:39.532Z,18.30
2019-02-18T04:03:39.508Z,19.50
2019-02-18T04:04:39.552Z,21.20
2019-02-18T04:05:39.451Z,21.70
2019-02-18T04:06:39.565Z,18.90
2019-02-18T04:07:39.461Z,19.30
2019-02-18T04:08:42.802Z,19.80
2019-02-18T04:09:39.432Z,19.80
2019-02-18T04:10:39.484Z,23.00
2019-02-18T04:11:39.381Z,20.40
2019-02-18T04:12:39.497Z,19.70
2019-02-18T04:13:39.392Z,19.60
2019-02-18T04:14:39.409Z,23.80
2019-02-18T04:15:39.335Z,21.40
2019-02-18T04:16:39.438Z,20.30
2019-02-18T04:17:39.318Z,19.90
2019-02-18T04:18:39.363Z,23.30
2019-02-18T04:19:39.290Z,20.20
2019-02-18T04:20:39.345Z,21.20
2019-02-18T04:21:39.273Z,23.00
2019-02-18T04:22:39.364Z,22.50
2019-02-18T04:23:39.293Z,20.40
2019-02-18T04:24:41.320Z,22.50
2019-02-18T04:25:39.225Z,20.40
2019-02-18T04:26:39.284Z,21.00
2019-02-18T04:27:39.206Z,20.80
2019-02-18T04:28:39.330Z,21.00
2019-02-18T04:29:39.201Z,22.00
2019-02-18T04:30:39.206Z,19.30
2019-02-18T04:31:39.159Z,23.10
2019-02-18T04:32:39.225Z,20.20
2019-02-18T04:33:39.133Z,20.10
2019-02-18T04:34:39.268Z,21.40
2019-02-18T04:35:39.108Z,19.50
2019-02-18T04:36:39.158Z,21.90
2019-02-18T04:37:39.091Z,19.80
2019-02-18T04:38:39.164Z,21.30
2019-02-18T04:39:39.097Z,19.60
2019-02-18T04:40:39.181Z,20.90
2019-02-18T04:41:39.045Z,23.70
2019-02-18T04:43:42.026Z,20.50
2019-02-18T04:44:39.141Z,22.70
2019-02-18T04:45:39.011Z,19.60
2019-02-18T04:46:39.115Z,20.40
2019-02-18T04:47:38.978Z,19.10
2019-02-18T04:48:39.027Z,22.10
2019-02-18T04:49:39.011Z,21.60
2019-02-18T04:51:40.067Z,21.40
2019-02-18T04:52:38.974Z,20.30
2019-02-18T04:53:38.918Z,20.30
2019-02-18T04:54:40.021Z,21.90
2019-02-18T04:55:38.903Z,23.40
2019-02-18T04:57:40.006Z,21.90
2019-02-18T04:59:40.022Z,21.70
2019-02-18T05:00:38.975Z,21.90
2019-02-18T05:01:39.060Z,21.70
2019-02-18T05:02:38.947Z,21.30
2019-02-18T05:03:39.061Z,21.00
2019-02-18T05:04:38.966Z,19.90
2019-02-18T05:05:38.824Z,23.30
2019-02-18T05:06:38.886Z,20.50
2019-02-18T05:07:38.768Z,21.20
2019-02-18T05:08:38.906Z,22.20
2019-02-18T05:09:39.930Z,21.40
2019-02-18T05:10:38.805Z,20.20
2019-02-18T05:11:38.730Z,21.50
2019-02-18T05:12:38.803Z,20.40
2019-02-18T05:13:38.706Z,19.20
2019-02-18T05:14:38.797Z,23.10
2019-02-18T05:15:40.367Z,20.80
2019-02-18T05:16:38.709Z,20.80
2019-02-18T05:17:38.657Z,21.10
2019-02-18T05:18:38.734Z,20.20
2019-02-18T05:19:38.641Z,19.90
2019-02-18T05:20:38.775Z,23.70
2019-02-18T05:21:38.611Z,21.20
2019-02-18T05:22:38.656Z,25.20
2019-02-18T05:23:38.593Z,30.00
2019-02-18T05:24:38.660Z,24.20
2019-02-18T05:25:38.609Z,23.90
2019-02-18T05:26:38.681Z,24.00
2019-02-18T05:27:38.552Z,23.70
2019-02-18T05:28:38.595Z,24.40
2019-02-18T05:29:38.542Z,22.40
2019-02-18T05:30:38.605Z,24.90
2019-02-18T05:31:38.550Z,22.80
2019-02-18T05:33:39.641Z,22.50
2019-02-18T05:34:38.537Z,24.70
2019-02-18T05:35:38.466Z,22.70
2019-02-18T05:36:38.576Z,24.30
2019-02-18T05:37:38.444Z,21.00
2019-02-18T05:38:38.555Z,24.60
2019-02-18T05:39:38.422Z,23.80
2019-02-18T05:40:38.473Z,24.00
2019-02-18T05:41:38.460Z,23.30
2019-02-18T05:42:38.480Z,23.60
2019-02-18T05:43:38.372Z,21.90
2019-02-18T05:44:38.399Z,24.40
2019-02-18T05:45:38.352Z,21.50
2019-02-18T05:46:38.433Z,21.40
2019-02-18T05:47:38.335Z,21.20
2019-02-18T05:49:39.445Z,25.00
2019-02-18T05:50:38.334Z,22.50
2019-02-18T05:51:38.289Z,21.30
2019-02-18T05:52:38.387Z,23.60
2019-02-18T05:53:38.293Z,19.40
2019-02-18T05:54:38.357Z,19.90
2019-02-18T05:55:38.256Z,25.90
2019-02-18T05:56:38.270Z,21.20
2019-02-18T05:57:38.249Z,20.30
2019-02-18T05:58:38.284Z,21.10
2019-02-18T05:59:38.208Z,21.00
2019-02-18T06:00:38.299Z,21.80
2019-02-18T06:01:38.188Z,23.80
2019-02-18T06:02:38.261Z,23.40
2019-02-18T06:03:38.168Z,27.90
2019-02-18T06:05:39.296Z,24.40
2019-02-18T06:06:38.284Z,21.90
2019-02-18T06:07:38.291Z,21.00
2019-02-18T06:08:38.295Z,23.60
2019-02-18T06:09:38.238Z,22.10
2019-02-18T06:10:38.308Z,25.20
2019-02-18T06:11:38.088Z,24.90
2019-02-18T06:12:38.207Z,23.50
2019-02-18T06:13:38.059Z,22.70
2019-02-18T06:14:38.098Z,21.00
2019-02-18T06:15:38.045Z,23.10
2019-02-18T06:16:38.107Z,22.90
2019-02-18T06:17:38.044Z,24.10
2019-02-18T06:18:38.120Z,24.90
2019-02-18T06:19:37.996Z,25.70
2019-02-18T06:20:38.029Z,27.20
2019-02-18T06:21:37.981Z,25.60
2019-02-18T06:22:38.837Z,24.40
2019-02-18T06:23:37.971Z,25.90
2019-02-18T06:24:38.059Z,25.10
2019-02-18T06:25:37.953Z,24.00
2019-02-18T06:26:37.979Z,26.50
2019-02-18T06:27:37.905Z,23.40
2019-02-18T06:28:38.017Z,26.70
2019-02-18T06:29:37.880Z,23.50
2019-02-18T06:30:38.006Z,25.70
2019-02-18T06:31:37.857Z,26.30
2019-02-18T06:32:37.907Z,23.30
2019-02-18T06:33:37.867Z,26.70
2019-02-18T06:34:37.926Z,25.90
2019-02-18T06:35:37.816Z,28.00
2019-02-18T06:36:37.829Z,25.50
2019-02-18T06:37:37.801Z,26.70
2019-02-18T06:38:38.934Z,26.30
2019-02-18T06:39:41.242Z,24.20
2019-02-18T06:40:37.856Z,24.20
2019-02-18T06:41:37.766Z,24.40
2019-02-18T06:42:37.776Z,23.10
2019-02-18T06:43:37.767Z,25.40
2019-02-18T06:44:37.788Z,25.90
2019-02-18T06:45:37.711Z,23.90
2019-02-18T06:46:37.802Z,25.80
2019-02-18T06:47:37.692Z,26.30
2019-02-18T06:48:37.741Z,26.30
2019-02-18T06:49:37.663Z,26.40
2019-02-18T06:50:38.065Z,26.30
2019-02-18T06:51:37.717Z,25.10
2019-02-18T06:52:37.743Z,26.20
2019-02-18T06:53:37.669Z,25.70
2019-02-18T06:54:37.662Z,25.20
2019-02-18T06:55:37.602Z,24.70
2019-02-18T06:56:37.663Z,28.10
2019-02-18T06:57:37.583Z,27.70
2019-02-18T06:58:37.680Z,26.90
2019-02-18T06:59:37.602Z,27.60
2019-02-18T07:00:37.592Z,27.60
2019-02-18T07:01:37.550Z,24.60
2019-02-18T07:02:37.599Z,26.60
2019-02-18T07:03:37.512Z,26.40
2019-02-18T07:04:37.754Z,25.00
2019-02-18T07:05:37.533Z,22.30
2019-02-18T07:06:37.629Z,24.40
2019-02-18T07:07:37.475Z,24.30
2019-02-18T07:08:37.541Z,23.90
2019-02-18T07:09:37.486Z,25.00
2019-02-18T07:10:37.587Z,23.80
2019-02-18T07:11:37.429Z,25.60
2019-02-18T07:12:37.466Z,29.60
2019-02-18T07:13:37.408Z,25.40
2019-02-18T07:14:37.490Z,23.30
2019-02-18T07:15:37.426Z,25.30
2019-02-18T07:16:37.498Z,23.20
2019-02-18T07:17:37.365Z,26.40
2019-02-18T07:18:37.409Z,23.90
2019-02-18T07:19:37.342Z,23.80
2019-02-18T07:20:37.475Z,24.00
2019-02-18T07:21:37.342Z,27.10
2019-02-18T07:22:37.440Z,26.60
2019-02-18T07:23:37.304Z,25.20
2019-02-18T07:24:37.345Z,25.40
2019-02-18T07:25:37.314Z,23.60
2019-02-18T07:26:37.359Z,23.20
2019-02-18T07:27:37.263Z,23.20
2019-02-18T07:28:37.406Z,25.00
2019-02-18T07:29:37.240Z,28.80
2019-02-18T07:30:37.317Z,24.60
2019-02-18T07:31:37.229Z,25.90
2019-02-18T07:32:37.336Z,22.70
2019-02-18T07:33:37.217Z,25.60
2019-02-18T07:34:37.212Z,21.10
2019-02-18T07:35:37.210Z,22.10
2019-02-18T07:36:37.167Z,25.10
2019-02-18T07:37:37.162Z,25.80
2019-02-18T07:38:37.144Z,24.90
2019-02-18T07:39:37.128Z,23.20
2019-02-18T07:40:37.149Z,26.70
2019-02-18T07:41:37.117Z,23.60
2019-02-18T07:42:37.102Z,22.70
2019-02-18T07:43:37.175Z,24.70
2019-02-18T07:44:37.181Z,23.40
2019-02-18T07:45:37.090Z,21.80
2019-02-18T07:46:37.086Z,22.50
2019-02-18T07:47:37.054Z,26.50
2019-02-18T07:49:38.170Z,25.30
2019-02-18T07:50:37.182Z,27.20
2019-02-18T07:51:37.035Z,23.00
2019-02-18T07:52:37.031Z,23.40
2019-02-18T07:53:36.991Z,23.40
2019-02-18T07:54:37.073Z,26.90
2019-02-18T07:55:36.956Z,25.50
2019-02-18T07:56:37.092Z,22.90
2019-02-18T07:57:36.946Z,25.80
2019-02-18T07:58:36.971Z,23.60
2019-02-18T07:59:36.912Z,24.00
2019-02-18T08:00:36.984Z,22.20
2019-02-18T08:01:36.922Z,23.40
2019-02-18T08:02:37.019Z,22.60
2019-02-18T08:03:36.870Z,21.70
2019-02-18T08:04:36.911Z,23.60
2019-02-18T08:05:36.850Z,21.40
2019-02-18T08:06:36.976Z,22.90
2019-02-18T08:07:36.834Z,23.30
2019-02-18T08:08:36.946Z,23.90
2019-02-18T08:09:36.801Z,24.70
2019-02-18T08:10:36.850Z,25.40
2019-02-18T08:11:36.810Z,25.10
2019-02-18T08:12:36.870Z,21.90
2019-02-18T08:13:36.772Z,22.30
2019-02-18T08:14:36.771Z,22.30
2019-02-18T08:15:36.739Z,24.10
2019-02-18T08:16:36.825Z,22.80
2019-02-18T08:17:36.737Z,22.00
2019-02-18T08:18:36.814Z,20.50
2019-02-18T08:19:36.703Z,19.80
2019-02-18T08:20:36.713Z,19.60
2019-02-18T08:21:36.712Z,20.80
2019-02-18T08:22:36.760Z,22.40
2019-02-18T08:23:36.665Z,18.00
2019-02-18T08:24:36.744Z,20.20
2019-02-18T08:25:36.634Z,18.40
2019-02-18T08:26:36.695Z,18.00
2019-02-18T08:27:36.603Z,17.60
2019-02-18T08:28:36.669Z,18.60
2019-02-18T08:29:36.584Z,19.00
2019-02-18T08:30:36.680Z,19.20
2019-02-18T08:31:36.584Z,19.00
2019-02-18T08:32:36.627Z,17.50
2019-02-18T08:33:36.541Z,19.10
2019-02-18T08:34:36.605Z,19.20
2019-02-18T08:35:36.519Z,21.30
2019-02-18T08:36:36.618Z,20.70
2019-02-18T08:37:36.526Z,18.90
2019-02-18T08:38:36.529Z,21.00
2019-02-18T08:39:36.478Z,19.20
2019-02-18T08:40:36.544Z,18.60
2019-02-18T08:41:36.481Z,18.60
2019-02-18T08:42:36.595Z,15.50
2019-02-18T08:43:36.429Z,13.30
2019-02-18T08:44:36.470Z,19.40
2019-02-18T08:45:36.424Z,14.70
2019-02-18T08:46:36.484Z,15.40
2019-02-18T08:47:36.429Z,16.10
2019-02-18T08:48:36.499Z,15.60
2019-02-18T08:49:36.368Z,15.60
2019-02-18T08:50:36.404Z,13.70
2019-02-18T08:51:36.347Z,17.60
2019-02-18T08:52:36.458Z,15.20
2019-02-18T08:53:36.356Z,13.90
2019-02-18T08:54:36.436Z,13.80
2019-02-18T08:55:36.315Z,12.40
2019-02-18T08:56:36.345Z,14.30
2019-02-18T08:57:36.292Z,15.40
2019-02-18T08:58:36.424Z,16.10
2019-02-18T08:59:36.275Z,14.70
2019-02-18T09:00:36.379Z,13.90
2019-02-18T09:01:36.248Z,15.90
2019-02-18T09:02:36.286Z,14.20
2019-02-18T09:03:36.240Z,14.60
2019-02-18T09:04:36.302Z,14.50
2019-02-18T09:05:36.193Z,17.10
2019-02-18T09:06:36.197Z,13.60
2019-02-18T09:07:36.171Z,12.20
2019-02-18T09:08:36.195Z,15.60
2019-02-18T09:09:36.152Z,17.10
2019-02-18T09:10:36.166Z,13.70
2019-02-18T09:11:36.163Z,14.60
2019-02-18T09:12:36.148Z,14.40
2019-02-18T09:13:36.129Z,15.10
2019-02-18T09:14:36.161Z,13.10
2019-02-18T09:15:36.100Z,16.70
2019-02-18T09:16:36.178Z,15.40
2019-02-18T09:17:36.068Z,12.10
2019-02-18T09:18:36.123Z,12.40
2019-02-18T09:19:36.043Z,13.70
2019-02-18T09:20:36.102Z,14.30
2019-02-18T09:21:36.023Z,13.90
2019-02-18T09:22:36.117Z,15.80
2019-02-18T09:23:36.033Z,16.70
2019-02-18T09:24:36.065Z,15.20
2019-02-18T09:25:36.009Z,12.80
2019-02-18T09:26:36.044Z,14.70
2019-02-18T09:27:35.949Z,16.20
2019-02-18T09:28:36.092Z,14.00
2019-02-18T09:29:35.960Z,15.00
2019-02-18T09:30:36.000Z,14.20
2019-02-18T09:31:35.912Z,16.00
2019-02-18T09:32:35.994Z,18.00
2019-02-18T09:33:35.933Z,17.00
2019-02-18T09:34:35.999Z,17.60
2019-02-18T09:35:35.881Z,18.20
2019-02-18T09:36:35.909Z,17.70
2019-02-18T09:37:35.867Z,17.20
2019-02-18T09:38:35.928Z,16.60
2019-02-18T09:39:35.853Z,16.00
2019-02-18T09:40:44.358Z,17.40
2019-02-18T09:41:36.800Z,15.00
2019-02-18T09:42:35.844Z,17.30
2019-02-18T09:43:35.810Z,14.60
2019-02-18T09:44:35.886Z,16.40
2019-02-18T09:45:35.756Z,16.40
2019-02-18T09:46:35.773Z,13.50
2019-02-18T09:47:35.737Z,15.30
2019-02-18T09:48:35.784Z,16.00
2019-02-18T09:49:35.743Z,17.60
2019-02-18T09:50:35.797Z,16.40
2019-02-18T09:51:35.692Z,14.70
2019-02-18T09:52:35.713Z,14.20
2019-02-18T09:53:35.677Z,14.40
2019-02-18T09:54:35.753Z,15.10
2019-02-18T09:55:35.646Z,15.90
2019-02-18T09:56:36.995Z,16.00
2019-02-18T09:57:35.631Z,16.40
2019-02-18T09:58:35.653Z,15.80
2019-02-18T09:59:35.628Z,15.00
2019-02-18T10:00:35.696Z,13.80
2019-02-18T10:01:35.584Z,13.70
2019-02-18T10:02:35.680Z,13.60
2019-02-18T10:03:35.566Z,13.70
2019-02-18T10:04:35.622Z,16.30
2019-02-18T10:05:35.566Z,12.40
2019-02-18T10:06:35.623Z,14.40
2019-02-18T10:07:35.520Z,15.30
2019-02-18T10:08:35.620Z,14.30
2019-02-18T10:09:35.533Z,15.70
2019-02-18T10:10:35.585Z,13.00
2019-02-18T10:11:35.479Z,16.60
2019-02-18T10:12:35.541Z,12.70
2019-02-18T10:13:35.454Z,16.00
2019-02-18T10:14:35.582Z,15.40
2019-02-18T10:15:35.456Z,15.70
2019-02-18T10:16:35.469Z,15.80
2019-02-18T10:17:35.409Z,15.40
2019-02-18T10:18:35.488Z,13.70
2019-02-18T10:19:35.386Z,14.60
2019-02-18T10:20:35.524Z,14.60
2019-02-18T10:21:35.364Z,15.50
2019-02-18T10:22:35.417Z,15.00
2019-02-18T10:23:35.342Z,12.70
2019-02-18T10:24:35.420Z,13.30
2019-02-18T10:25:35.320Z,13.50
2019-02-18T10:26:36.390Z,12.60
2019-02-18T10:27:35.298Z,13.00
2019-02-18T10:28:35.351Z,15.20
2019-02-18T10:29:35.277Z,13.60
2019-02-18T10:30:35.364Z,16.40
2019-02-18T10:31:35.291Z,15.30
2019-02-18T10:32:35.274Z,19.40
2019-02-18T10:33:35.249Z,14.80
2019-02-18T10:34:35.284Z,15.80
2019-02-18T10:35:35.213Z,15.50
2019-02-18T10:36:35.338Z,14.10
2019-02-18T10:37:35.215Z,17.30
2019-02-18T10:38:35.211Z,17.10
2019-02-18T10:39:35.164Z,15.80
2019-02-18T10:40:35.227Z,13.00
2019-02-18T10:41:35.143Z,14.90
2019-02-18T10:42:35.270Z,14.00
2019-02-18T10:43:35.160Z,16.40
2019-02-18T10:44:35.207Z,14.90
2019-02-18T10:45:35.111Z,17.60
2019-02-18T10:46:35.172Z,14.70
2019-02-18T10:47:35.110Z,14.90
2019-02-18T10:48:35.212Z,14.80
2019-02-18T10:49:35.072Z,14.90
2019-02-18T10:50:35.099Z,14.40
2019-02-18T10:51:35.039Z,15.80
2019-02-18T10:52:35.139Z,15.50
2019-02-18T10:53:35.017Z,14.40
2019-02-18T10:54:35.124Z,15.50
2019-02-18T10:55:34.995Z,17.40
2019-02-18T10:56:35.049Z,16.90
2019-02-18T10:57:35.005Z,17.70
2019-02-18T10:58:35.049Z,13.60
2019-02-18T10:59:34.948Z,15.90
2019-02-18T11:00:35.060Z,13.10
2019-02-18T11:01:34.980Z,14.20
2019-02-18T11:02:35.001Z,14.70
2019-02-18T11:03:34.906Z,17.20
2019-02-18T11:04:34.980Z,13.80
2019-02-18T11:05:34.882Z,16.10
2019-02-18T11:06:34.998Z,16.60
2019-02-18T11:07:34.865Z,14.80
2019-02-18T11:08:34.944Z,14.10
2019-02-18T11:09:34.846Z,19.20
2019-02-18T11:10:34.935Z,15.80
2019-02-18T11:11:34.820Z,15.10
2019-02-18T11:12:34.836Z,16.00
2019-02-18T11:13:34.820Z,14.70
2019-02-18T11:14:34.865Z,15.90
2019-02-18T11:15:34.774Z,15.60
2019-02-18T11:16:34.866Z,15.00
2019-02-18T11:17:38.838Z,13.90
2019-02-18T11:18:34.820Z,14.70
2019-02-18T11:19:34.730Z,15.80
2019-02-18T11:20:34.792Z,16.00
2019-02-18T11:21:34.727Z,18.60
2019-02-18T11:22:34.801Z,13.50
2019-02-18T11:23:34.717Z,14.50
2019-02-18T11:24:34.717Z,17.70
2019-02-18T11:25:34.739Z,16.60
2019-02-18T11:26:34.725Z,15.50
2019-02-18T11:27:34.644Z,14.20
2019-02-18T11:28:34.781Z,14.10
2019-02-18T11:29:34.629Z,16.30
2019-02-18T11:30:34.652Z,16.10
2019-02-18T11:31:34.602Z,15.00
2019-02-18T11:32:34.674Z,15.40
2019-02-18T11:33:34.636Z,15.90
2019-02-18T11:34:35.632Z,16.60
2019-02-18T11:35:34.576Z,16.30
2019-02-18T11:36:34.592Z,16.80
2019-02-18T11:37:34.532Z,15.90
2019-02-18T11:38:35.663Z,18.40
2019-02-18T11:39:34.568Z,15.10
2019-02-18T11:40:34.665Z,17.00
2019-02-18T11:41:34.491Z,14.20
2019-02-18T11:42:34.535Z,16.10
2019-02-18T11:43:34.523Z,14.80
2019-02-18T11:44:34.550Z,14.10
2019-02-18T11:45:34.972Z,16.10
2019-02-18T11:46:34.562Z,15.80
2019-02-18T11:47:34.427Z,16.30
2019-02-18T11:48:34.473Z,17.90
2019-02-18T11:49:34.429Z,13.90
2019-02-18T11:50:34.483Z,17.70
2019-02-18T11:51:34.392Z,16.10
2019-02-18T11:52:34.399Z,20.20
2019-02-18T11:53:34.361Z,16.30
2019-02-18T11:54:34.440Z,17.50
2019-02-18T11:55:34.337Z,14.40
2019-02-18T11:56:34.423Z,16.20
2019-02-18T11:57:34.324Z,20.20
2019-02-18T11:58:34.334Z,16.20
2019-02-18T11:59:34.321Z,15.70
2019-02-18T12:00:34.352Z,15.50
2019-02-18T12:01:34.273Z,13.60
2019-02-18T12:02:34.367Z,18.60
2019-02-18T12:03:34.249Z,17.40
2019-02-18T12:04:34.301Z,15.60
2019-02-18T12:05:34.228Z,15.70
2019-02-18T12:06:34.313Z,16.70
2019-02-18T12:07:34.206Z,17.20
2019-02-18T12:08:34.302Z,16.00
2019-02-18T12:09:34.210Z,16.20
2019-02-18T12:10:34.245Z,19.10
2019-02-18T12:11:37.863Z,20.30
2019-02-18T12:12:34.231Z,16.80
2019-02-18T12:13:34.145Z,15.60
2019-02-18T12:14:34.271Z,13.20
2019-02-18T12:15:34.120Z,15.50
2019-02-18T12:16:34.157Z,15.50
2019-02-18T12:17:34.094Z,13.80
2019-02-18T12:19:35.257Z,14.90
2019-02-18T12:20:34.182Z,14.20
2019-02-18T12:21:34.063Z,14.40
2019-02-18T12:22:34.096Z,15.00
2019-02-18T12:23:34.031Z,15.80
2019-02-18T12:24:34.107Z,17.10
2019-02-18T12:25:34.038Z,13.00
2019-02-18T12:26:34.126Z,12.60
2019-02-18T12:27:33.990Z,12.70
2019-02-18T12:28:34.079Z,12.30
2019-02-18T12:29:33.966Z,14.90
2019-02-18T12:30:34.081Z,13.30
2019-02-18T12:31:33.949Z,14.00
2019-02-18T12:32:33.958Z,12.50
2019-02-18T12:33:33.927Z,13.50
2019-02-18T12:34:33.974Z,17.80
2019-02-18T12:35:34.191Z,15.90
2019-02-18T12:36:33.985Z,13.10
2019-02-18T12:37:33.877Z,13.40
2019-02-18T12:38:33.903Z,15.00
2019-02-18T12:39:33.866Z,18.90
2019-02-18T12:40:34.044Z,13.80
2019-02-18T12:41:33.832Z,14.70
2019-02-18T12:42:33.924Z,16.30
2019-02-18T12:43:33.812Z,13.70
2019-02-18T12:44:33.838Z,14.60
2019-02-18T12:45:33.822Z,18.10
2019-02-18T12:46:33.854Z,15.30
2019-02-18T12:47:33.772Z,13.10
2019-02-18T12:48:35.340Z,13.10
2019-02-18T12:49:33.744Z,12.20
2019-02-18T12:50:33.930Z,19.90
2019-02-18T12:51:33.772Z,16.10
2019-02-18T12:52:33.797Z,15.70
2019-02-18T12:53:33.707Z,15.10
2019-02-18T12:54:33.807Z,12.10
2019-02-18T12:55:33.964Z,13.80
2019-02-18T12:56:33.714Z,14.10
2019-02-18T12:57:33.698Z,13.40
2019-02-18T12:58:33.729Z,13.40
2019-02-18T12:59:33.711Z,16.80
2019-02-18T13:00:33.744Z,12.80
2019-02-18T13:01:33.646Z,16.60
2019-02-18T13:02:43.389Z,16.10
2019-02-18T13:03:34.595Z,11.10
2019-02-18T13:05:34.698Z,13.50
2019-02-18T13:06:33.712Z,13.70
2019-02-18T13:07:33.575Z,13.20
2019-02-18T13:08:33.552Z,13.40
2019-02-18T13:09:33.529Z,13.80
2019-02-18T13:10:34.789Z,15.60
2019-02-18T13:11:33.511Z,13.90
2019-02-18T13:12:33.649Z,15.30
2019-02-18T13:13:33.486Z,14.90
2019-02-18T13:14:33.546Z,15.40
2019-02-18T13:15:33.468Z,14.30
2019-02-18T13:17:34.624Z,15.50
2019-02-18T13:18:33.466Z,14.60
2019-02-18T13:19:33.422Z,11.80
2019-02-18T13:20:33.475Z,13.30
2019-02-18T13:21:33.398Z,14.30
2019-02-18T13:22:33.489Z,14.00
2019-02-18T13:23:33.402Z,12.50
2019-02-18T13:24:33.394Z,11.60
2019-02-18T13:25:33.363Z,11.70
2019-02-18T13:26:33.415Z,13.50
2019-02-18T13:27:33.336Z,12.50